<?xml version="1.0" encoding="UTF-8" standalone="no" ?>
<gpx xmlns="http://www.topografix.com/GPX/1/1" xmlns:xsi="http://www.w3.org/2001/XMLSchema-instance" xsi:schemaLocation="http://www.topografix.com/GPX/1/1 http://www.topografix.com/GPX/1/1/gpx.xsd" version="1.1" creator="VisuGPX - https://www.visugpx.com">
  <metadata>
    <name>Alpe d'Huez : le Tour des Lacs - du Lac Besson au Lac Carrelet</name>
  </metadata>
  <wpt lat="45.11573" lon="6.08708">
    <ele>2077</ele>
    <name><![CDATA[Point de vue initial sur le Lac Besson]]></name>
  </wpt>
  <wpt lat="45.11503" lon="6.08607">
    <ele>2080</ele>
    <name><![CDATA[Prendre sentier à droite vers le Lac Noir]]></name>
  </wpt>
  <wpt lat="45.11789" lon="6.08327">
    <ele>2052</ele>
    <name><![CDATA[Passerelle sur le déversoir, faire demi-tour]]></name>
  </wpt>
  <wpt lat="45.12533" lon="6.08851">
    <ele>2066</ele>
    <name><![CDATA[Lac Faucille]]></name>
  </wpt>
  <wpt lat="45.13806" lon="6.09416">
    <ele>2051</ele>
    <name><![CDATA[Bar-restaurant, passer devant la terrasse]]></name>
  </wpt>
  <trk>
    <name><![CDATA[Alpe d'Huez : le Tour des Lacs - du Lac Besson au Lac Carrelet]]></name>
    <trkseg>
      <trkpt lat="45.11493" lon="6.08601">
        <ele>2080</ele>
        <time>2018-07-26T16:27:49+02:00</time>
      </trkpt>
      <trkpt lat="45.11573" lon="6.08708">
        <ele>2077</ele>
        <time>2018-07-26T16:27:54+02:00</time>
      </trkpt>
      <trkpt lat="45.11579" lon="6.08676">
        <ele>2078</ele>
        <time>2018-07-26T16:27:59+02:00</time>
      </trkpt>
      <trkpt lat="45.11503" lon="6.08607">
        <ele>2080</ele>
        <time>2018-07-26T16:28:04+02:00</time>
      </trkpt>
      <trkpt lat="45.11546" lon="6.08572">
        <ele>2081</ele>
        <time>2018-07-26T16:28:09+02:00</time>
      </trkpt>
      <trkpt lat="45.11572" lon="6.08577">
        <ele>2081</ele>
        <time>2018-07-26T16:28:14+02:00</time>
      </trkpt>
      <trkpt lat="45.1162" lon="6.08557">
        <ele>2076</ele>
        <time>2018-07-26T16:28:19+02:00</time>
      </trkpt>
      <trkpt lat="45.11664" lon="6.08515">
        <ele>2065</ele>
        <time>2018-07-26T16:28:24+02:00</time>
      </trkpt>
      <trkpt lat="45.11691" lon="6.08518">
        <ele>2061</ele>
        <time>2018-07-26T16:28:29+02:00</time>
      </trkpt>
      <trkpt lat="45.11726" lon="6.08541">
        <ele>2059</ele>
        <time>2018-07-26T16:28:34+02:00</time>
      </trkpt>
      <trkpt lat="45.11762" lon="6.0856">
        <ele>2058</ele>
        <time>2018-07-26T16:28:39+02:00</time>
      </trkpt>
      <trkpt lat="45.11799" lon="6.08573">
        <ele>2059</ele>
        <time>2018-07-26T16:28:44+02:00</time>
      </trkpt>
      <trkpt lat="45.11826" lon="6.08562">
        <ele>2057</ele>
        <time>2018-07-26T16:28:49+02:00</time>
      </trkpt>
      <trkpt lat="45.11849" lon="6.08562">
        <ele>2058</ele>
        <time>2018-07-26T16:28:54+02:00</time>
      </trkpt>
      <trkpt lat="45.11854" lon="6.08537">
        <ele>2055</ele>
        <time>2018-07-26T16:28:59+02:00</time>
      </trkpt>
      <trkpt lat="45.11893" lon="6.08528">
        <ele>2056</ele>
        <time>2018-07-26T16:29:04+02:00</time>
      </trkpt>
      <trkpt lat="45.11929" lon="6.08505">
        <ele>2054</ele>
        <time>2018-07-26T16:29:09+02:00</time>
      </trkpt>
      <trkpt lat="45.11881" lon="6.08461">
        <ele>2051</ele>
        <time>2018-07-26T16:29:14+02:00</time>
      </trkpt>
      <trkpt lat="45.11826" lon="6.08389">
        <ele>2048</ele>
        <time>2018-07-26T16:29:19+02:00</time>
      </trkpt>
      <trkpt lat="45.11794" lon="6.08343">
        <ele>2052</ele>
        <time>2018-07-26T16:29:24+02:00</time>
      </trkpt>
      <trkpt lat="45.11789" lon="6.08327">
        <ele>2052</ele>
        <time>2018-07-26T16:29:29+02:00</time>
      </trkpt>
      <trkpt lat="45.11807" lon="6.08333">
        <ele>2052</ele>
        <time>2018-07-26T16:29:34+02:00</time>
      </trkpt>
      <trkpt lat="45.11887" lon="6.08449">
        <ele>2052</ele>
        <time>2018-07-26T16:29:39+02:00</time>
      </trkpt>
      <trkpt lat="45.11944" lon="6.085">
        <ele>2054</ele>
        <time>2018-07-26T16:29:44+02:00</time>
      </trkpt>
      <trkpt lat="45.11984" lon="6.08528">
        <ele>2063</ele>
        <time>2018-07-26T16:29:49+02:00</time>
      </trkpt>
      <trkpt lat="45.1204" lon="6.08541">
        <ele>2066</ele>
        <time>2018-07-26T16:29:54+02:00</time>
      </trkpt>
      <trkpt lat="45.12074" lon="6.08554">
        <ele>2066</ele>
        <time>2018-07-26T16:29:59+02:00</time>
      </trkpt>
      <trkpt lat="45.12099" lon="6.08566">
        <ele>2066</ele>
        <time>2018-07-26T16:30:04+02:00</time>
      </trkpt>
      <trkpt lat="45.12158" lon="6.08558">
        <ele>2063</ele>
        <time>2018-07-26T16:30:09+02:00</time>
      </trkpt>
      <trkpt lat="45.12124" lon="6.08575">
        <ele>2065</ele>
        <time>2018-07-26T16:30:14+02:00</time>
      </trkpt>
      <trkpt lat="45.12191" lon="6.08599">
        <ele>2062</ele>
        <time>2018-07-26T16:30:19+02:00</time>
      </trkpt>
      <trkpt lat="45.12231" lon="6.08637">
        <ele>2063</ele>
        <time>2018-07-26T16:30:24+02:00</time>
      </trkpt>
      <trkpt lat="45.12267" lon="6.08636">
        <ele>2059</ele>
        <time>2018-07-26T16:30:29+02:00</time>
      </trkpt>
      <trkpt lat="45.12323" lon="6.08667">
        <ele>2056</ele>
        <time>2018-07-26T16:30:34+02:00</time>
      </trkpt>
      <trkpt lat="45.12359" lon="6.08691">
        <ele>2061</ele>
        <time>2018-07-26T16:30:39+02:00</time>
      </trkpt>
      <trkpt lat="45.12386" lon="6.08717">
        <ele>2067</ele>
        <time>2018-07-26T16:30:44+02:00</time>
      </trkpt>
      <trkpt lat="45.12435" lon="6.08742">
        <ele>2069</ele>
        <time>2018-07-26T16:30:49+02:00</time>
      </trkpt>
      <trkpt lat="45.12472" lon="6.08765">
        <ele>2067</ele>
        <time>2018-07-26T16:30:54+02:00</time>
      </trkpt>
      <trkpt lat="45.12502" lon="6.08788">
        <ele>2064</ele>
        <time>2018-07-26T16:30:59+02:00</time>
      </trkpt>
      <trkpt lat="45.12526" lon="6.08795">
        <ele>2062</ele>
        <time>2018-07-26T16:31:04+02:00</time>
      </trkpt>
      <trkpt lat="45.12544" lon="6.08819">
        <ele>2063</ele>
        <time>2018-07-26T16:31:09+02:00</time>
      </trkpt>
      <trkpt lat="45.12533" lon="6.08851">
        <ele>2066</ele>
        <time>2018-07-26T16:31:14+02:00</time>
      </trkpt>
      <trkpt lat="45.12566" lon="6.08852">
        <ele>2065</ele>
        <time>2018-07-26T16:31:19+02:00</time>
      </trkpt>
      <trkpt lat="45.12612" lon="6.08851">
        <ele>2067</ele>
        <time>2018-07-26T16:31:24+02:00</time>
      </trkpt>
      <trkpt lat="45.12712" lon="6.08929">
        <ele>2074</ele>
        <time>2018-07-26T16:31:29+02:00</time>
      </trkpt>
      <trkpt lat="45.12875" lon="6.09004">
        <ele>2084</ele>
        <time>2018-07-26T16:31:34+02:00</time>
      </trkpt>
      <trkpt lat="45.13045" lon="6.09094">
        <ele>2094</ele>
        <time>2018-07-26T16:31:39+02:00</time>
      </trkpt>
      <trkpt lat="45.13159" lon="6.09127">
        <ele>2083</ele>
        <time>2018-07-26T16:31:44+02:00</time>
      </trkpt>
      <trkpt lat="45.13345" lon="6.09165">
        <ele>2055</ele>
        <time>2018-07-26T16:31:49+02:00</time>
      </trkpt>
      <trkpt lat="45.13488" lon="6.09167">
        <ele>2035</ele>
        <time>2018-07-26T16:31:54+02:00</time>
      </trkpt>
      <trkpt lat="45.13632" lon="6.09121">
        <ele>2021</ele>
        <time>2018-07-26T16:31:59+02:00</time>
      </trkpt>
      <trkpt lat="45.13677" lon="6.09112">
        <ele>2019</ele>
        <time>2018-07-26T16:32:04+02:00</time>
      </trkpt>
      <trkpt lat="45.13753" lon="6.09135">
        <ele>2020</ele>
        <time>2018-07-26T16:32:09+02:00</time>
      </trkpt>
      <trkpt lat="45.13825" lon="6.0918">
        <ele>2021</ele>
        <time>2018-07-26T16:32:14+02:00</time>
      </trkpt>
      <trkpt lat="45.13876" lon="6.09232">
        <ele>2029</ele>
        <time>2018-07-26T16:32:19+02:00</time>
      </trkpt>
      <trkpt lat="45.13886" lon="6.09305">
        <ele>2036</ele>
        <time>2018-07-26T16:32:24+02:00</time>
      </trkpt>
      <trkpt lat="45.13879" lon="6.0937">
        <ele>2041</ele>
        <time>2018-07-26T16:32:29+02:00</time>
      </trkpt>
      <trkpt lat="45.13806" lon="6.09416">
        <ele>2051</ele>
        <time>2018-07-26T16:32:34+02:00</time>
      </trkpt>
      <trkpt lat="45.13789" lon="6.09375">
        <ele>2047</ele>
        <time>2018-07-26T16:32:39+02:00</time>
      </trkpt>
      <trkpt lat="45.13748" lon="6.09351">
        <ele>2049</ele>
        <time>2018-07-26T16:32:44+02:00</time>
      </trkpt>
      <trkpt lat="45.13535" lon="6.0932">
        <ele>2049</ele>
        <time>2018-07-26T16:32:49+02:00</time>
      </trkpt>
      <trkpt lat="45.13517" lon="6.09284">
        <ele>2044</ele>
        <time>2018-07-26T16:32:54+02:00</time>
      </trkpt>
      <trkpt lat="45.13466" lon="6.09254">
        <ele>2045</ele>
        <time>2018-07-26T16:32:59+02:00</time>
      </trkpt>
      <trkpt lat="45.13438" lon="6.09249">
        <ele>2047</ele>
        <time>2018-07-26T16:33:04+02:00</time>
      </trkpt>
      <trkpt lat="45.1341" lon="6.09228">
        <ele>2050</ele>
        <time>2018-07-26T16:33:09+02:00</time>
      </trkpt>
      <trkpt lat="45.13348" lon="6.09209">
        <ele>2059</ele>
        <time>2018-07-26T16:33:14+02:00</time>
      </trkpt>
      <trkpt lat="45.13275" lon="6.09184">
        <ele>2068</ele>
        <time>2018-07-26T16:33:19+02:00</time>
      </trkpt>
      <trkpt lat="45.13246" lon="6.09186">
        <ele>2073</ele>
        <time>2018-07-26T16:33:24+02:00</time>
      </trkpt>
      <trkpt lat="45.13217" lon="6.09206">
        <ele>2078</ele>
        <time>2018-07-26T16:33:29+02:00</time>
      </trkpt>
      <trkpt lat="45.13198" lon="6.09202">
        <ele>2080</ele>
        <time>2018-07-26T16:33:34+02:00</time>
      </trkpt>
      <trkpt lat="45.13102" lon="6.09163">
        <ele>2092</ele>
        <time>2018-07-26T16:33:39+02:00</time>
      </trkpt>
      <trkpt lat="45.1308" lon="6.09126">
        <ele>2093</ele>
        <time>2018-07-26T16:33:44+02:00</time>
      </trkpt>
      <trkpt lat="45.13053" lon="6.09107">
        <ele>2095</ele>
        <time>2018-07-26T16:33:49+02:00</time>
      </trkpt>
      <trkpt lat="45.12842" lon="6.09011">
        <ele>2083</ele>
        <time>2018-07-26T16:33:54+02:00</time>
      </trkpt>
      <trkpt lat="45.1266" lon="6.0891">
        <ele>2070</ele>
        <time>2018-07-26T16:33:59+02:00</time>
      </trkpt>
      <trkpt lat="45.12613" lon="6.08864">
        <ele>2067</ele>
        <time>2018-07-26T16:34:04+02:00</time>
      </trkpt>
      <trkpt lat="45.1253" lon="6.08865">
        <ele>2066</ele>
        <time>2018-07-26T16:34:09+02:00</time>
      </trkpt>
      <trkpt lat="45.12492" lon="6.08853">
        <ele>2068</ele>
        <time>2018-07-26T16:34:14+02:00</time>
      </trkpt>
      <trkpt lat="45.1244" lon="6.08861">
        <ele>2074</ele>
        <time>2018-07-26T16:34:19+02:00</time>
      </trkpt>
      <trkpt lat="45.12374" lon="6.08869">
        <ele>2081</ele>
        <time>2018-07-26T16:34:24+02:00</time>
      </trkpt>
      <trkpt lat="45.12278" lon="6.08864">
        <ele>2086</ele>
        <time>2018-07-26T16:34:29+02:00</time>
      </trkpt>
      <trkpt lat="45.12224" lon="6.08861">
        <ele>2086</ele>
        <time>2018-07-26T16:34:34+02:00</time>
      </trkpt>
      <trkpt lat="45.12158" lon="6.08858">
        <ele>2085</ele>
        <time>2018-07-26T16:34:39+02:00</time>
      </trkpt>
      <trkpt lat="45.12102" lon="6.08855">
        <ele>2082</ele>
        <time>2018-07-26T16:34:44+02:00</time>
      </trkpt>
      <trkpt lat="45.12007" lon="6.08841">
        <ele>2074</ele>
        <time>2018-07-26T16:34:49+02:00</time>
      </trkpt>
      <trkpt lat="45.11935" lon="6.08858">
        <ele>2078</ele>
        <time>2018-07-26T16:34:54+02:00</time>
      </trkpt>
      <trkpt lat="45.11853" lon="6.08841">
        <ele>2076</ele>
        <time>2018-07-26T16:34:59+02:00</time>
      </trkpt>
      <trkpt lat="45.1179" lon="6.08854">
        <ele>2077</ele>
        <time>2018-07-26T16:35:04+02:00</time>
      </trkpt>
      <trkpt lat="45.11746" lon="6.08891">
        <ele>2088</ele>
        <time>2018-07-26T16:35:09+02:00</time>
      </trkpt>
      <trkpt lat="45.11698" lon="6.089">
        <ele>2095</ele>
        <time>2018-07-26T16:35:14+02:00</time>
      </trkpt>
      <trkpt lat="45.11633" lon="6.08848">
        <ele>2082</ele>
        <time>2018-07-26T16:35:19+02:00</time>
      </trkpt>
      <trkpt lat="45.1158" lon="6.08824">
        <ele>2081</ele>
        <time>2018-07-26T16:35:24+02:00</time>
      </trkpt>
      <trkpt lat="45.11567" lon="6.08792">
        <ele>2078</ele>
        <time>2018-07-26T16:35:29+02:00</time>
      </trkpt>
      <trkpt lat="45.11567" lon="6.08739">
        <ele>2075</ele>
        <time>2018-07-26T16:35:34+02:00</time>
      </trkpt>
      <trkpt lat="45.11554" lon="6.087">
        <ele>2078</ele>
        <time>2018-07-26T16:35:39+02:00</time>
      </trkpt>
      <trkpt lat="45.11502" lon="6.08628">
        <ele>2080</ele>
        <time>2018-07-26T16:35:44+02:00</time>
      </trkpt>
      <trkpt lat="45.11493" lon="6.08601">
        <ele>2080</ele>
        <time>2018-07-26T16:35:49+02:00</time>
      </trkpt>
    </trkseg>
  </trk>
</gpx>